sensor_id;sensor_type;location;lat;lon;timestamp;pressure;altitude;pressure_sealevel;temperature;humidity
11041;BME280;5573;49.592;8.662;2023-02-22T00:00:44;99778.28;;;5.52;100.00
11041;BME280;5573;49.592;8.662;2023-02-22T00:03:15;99751.84;;;5.40;100.00
11041;BME280;5573;49.592;8.662;2023-02-22T00:05:45;99770.69;;;5.45;100.00
11041;BME280;5573;49.592;8.662;2023-02-22T00:08:15;99774.91;;;5.43;100.00
11041;BME280;5573;49.592;8.662;2023-02-22T00:10:43;99769.44;;;5.43;100.00
11041;BME280;5573;49.592;8.662;2023-02-22T00:13:13;99753.03;;;5.27;100.00
11041;BME280;5573;49.592;8.662;2023-02-22T00:15:41;99768.56;;;5.39;100.00
11041;BME280;5573;49.592;8.662;2023-02-22T00:18:12;99766.53;;;5.36;100.00
11041;BME280;5573;49.592;8.662;2023-02-22T00:20:40;99767.94;;;5.29;100.00
11041;BME280;5573;49.592;8.662;2023-02-22T00:23:12;99765.72;;;5.35;100.00
11041;BME280;5573;49.592;8.662;2023-02-22T00:25:41;99765.50;;;5.40;100.00
11041;BME280;5573;49.592;8.662;2023-02-22T00:28:09;99761.00;;;5.48;100.00
11041;BME280;5573;49.592;8.662;2023-02-22T00:30:37;99756.38;;;5.48;100.00
11041;BME280;5573;49.592;8.662;2023-02-22T00:33:05;99756.00;;;5.50;100.00
11041;BME280;5573;49.592;8.662;2023-02-22T00:35:32;99753.09;;;5.43;100.00
11041;BME280;5573;49.592;8.662;2023-02-22T00:38:01;99750.25;;;5.39;100.00
11041;BME280;5573;49.592;8.662;2023-02-22T00:40:31;99748.69;;;5.38;100.00
11041;BME280;5573;49.592;8.662;2023-02-22T00:43:03;99754.81;;;5.35;100.00
11041;BME280;5573;49.592;8.662;2023-02-22T00:45:33;99759.94;;;5.37;100.00
11041;BME280;5573;49.592;8.662;2023-02-22T00:48:01;99756.06;;;5.38;100.00
11041;BME280;5573;49.592;8.662;2023-02-22T00:50:31;99752.69;;;5.28;100.00
11041;BME280;5573;49.592;8.662;2023-02-22T00:53:00;99749.50;;;5.26;100.00
11041;BME280;5573;49.592;8.662;2023-02-22T00:55:31;99754.03;;;5.35;100.00
11041;BME280;5573;49.592;8.662;2023-02-22T00:57:59;99748.03;;;5.29;100.00
11041;BME280;5573;49.592;8.662;2023-02-22T01:00:32;99743.38;;;5.29;100.00
11041;BME280;5573;49.592;8.662;2023-02-22T01:03:02;99743.63;;;5.24;100.00
11041;BME280;5573;49.592;8.662;2023-02-22T01:05:30;99740.81;;;5.21;100.00
11041;BME280;5573;49.592;8.662;2023-02-22T01:08:00;99742.38;;;5.22;100.00
11041;BME280;5573;49.592;8.662;2023-02-22T01:10:30;99735.03;;;5.10;100.00
11041;BME280;5573;49.592;8.662;2023-02-22T01:12:59;99743.97;;;5.23;100.00
11041;BME280;5573;49.592;8.662;2023-02-22T01:15:29;99724.00;;;5.19;100.00
11041;BME280;5573;49.592;8.662;2023-02-22T01:17:58;99731.97;;;5.12;100.00
11041;BME280;5573;49.592;8.662;2023-02-22T01:20:27;99697.91;;;5.05;100.00
11041;BME280;5573;49.592;8.662;2023-02-22T01:22:57;99725.13;;;5.18;100.00
11041;BME280;5573;49.592;8.662;2023-02-22T01:25:27;99721.41;;;5.10;100.00
11041;BME280;5573;49.592;8.662;2023-02-22T01:27:55;99694.09;;;4.94;100.00
11041;BME280;5573;49.592;8.662;2023-02-22T01:30:25;99721.41;;;5.10;100.00
11041;BME280;5573;49.592;8.662;2023-02-22T01:32:55;99721.66;;;5.05;100.00
11041;BME280;5573;49.592;8.662;2023-02-22T01:35:26;99722.88;;;5.07;100.00
11041;BME280;5573;49.592;8.662;2023-02-22T01:37:55;99699.41;;;5.03;100.00
11041;BME280;5573;49.592;8.662;2023-02-22T01:40:26;99705.84;;;5.11;100.00
11041;BME280;5573;49.592;8.662;2023-02-22T01:42:56;99710.63;;;5.01;100.00
11041;BME280;5573;49.592;8.662;2023-02-22T01:45:58;99713.13;;;5.06;100.00
11041;BME280;5573;49.592;8.662;2023-02-22T01:48:31;99703.91;;;5.11;100.00
11041;BME280;5573;49.592;8.662;2023-02-22T01:51:03;99710.41;;;5.06;100.00
11041;BME280;5573;49.592;8.662;2023-02-22T01:53:39;99707.56;;;5.03;100.00
11041;BME280;5573;49.592;8.662;2023-02-22T01:56:08;99709.03;;;5.13;100.00
11041;BME280;5573;49.592;8.662;2023-02-22T01:58:41;99700.72;;;5.09;100.00
11041;BME280;5573;49.592;8.662;2023-02-22T02:01:10;99702.38;;;4.98;100.00
11041;BME280;5573;49.592;8.662;2023-02-22T02:03:40;99691.66;;;5.05;100.00
11041;BME280;5573;49.592;8.662;2023-02-22T02:06:11;99690.88;;;5.04;100.00
11041;BME280;5573;49.592;8.662;2023-02-22T02:08:45;99684.53;;;5.00;100.00
11041;BME280;5573;49.592;8.662;2023-02-22T02:11:19;99688.63;;;4.94;100.00
11041;BME280;5573;49.592;8.662;2023-02-22T02:13:49;99666.66;;;4.87;100.00
11041;BME280;5573;49.592;8.662;2023-02-22T02:16:19;99682.47;;;4.97;100.00
11041;BME280;5573;49.592;8.662;2023-02-22T02:18:49;99686.97;;;4.89;100.00
11041;BME280;5573;49.592;8.662;2023-02-22T02:21:35;99683.00;;;4.87;100.00
11041;BME280;5573;49.592;8.662;2023-02-22T02:27:16;99679.72;;;4.81;100.00
11041;BME280;5573;49.592;8.662;2023-02-22T02:30:07;99673.47;;;4.81;100.00
11041;BME280;5573;49.592;8.662;2023-02-22T02:32:50;99664.16;;;4.82;100.00
11041;BME280;5573;49.592;8.662;2023-02-22T02:35:28;99659.03;;;4.80;100.00
11041;BME280;5573;49.592;8.662;2023-02-22T02:38:04;99657.81;;;4.78;100.00
11041;BME280;5573;49.592;8.662;2023-02-22T02:40:38;99655.53;;;4.80;100.00
11041;BME280;5573;49.592;8.662;2023-02-22T02:43:14;99648.50;;;4.79;100.00
11041;BME280;5573;49.592;8.662;2023-02-22T02:45:46;99657.47;;;4.79;100.00
11041;BME280;5573;49.592;8.662;2023-02-22T02:48:20;99646.25;;;4.97;100.00
11041;BME280;5573;49.592;8.662;2023-02-22T02:50:50;99644.72;;;5.12;100.00
11041;BME280;5573;49.592;8.662;2023-02-22T02:53:21;99643.94;;;5.27;100.00
11041;BME280;5573;49.592;8.662;2023-02-22T02:55:51;99646.16;;;5.37;100.00
11041;BME280;5573;49.592;8.662;2023-02-22T02:58:22;99654.78;;;5.39;100.00
11041;BME280;5573;49.592;8.662;2023-02-22T03:00:53;99643.53;;;5.25;100.00
11041;BME280;5573;49.592;8.662;2023-02-22T03:03:50;99639.97;;;5.08;100.00
11041;BME280;5573;49.592;8.662;2023-02-22T03:06:48;99641.63;;;5.13;100.00
11041;BME280;5573;49.592;8.662;2023-02-22T03:09:30;99647.69;;;5.06;100.00
11041;BME280;5573;49.592;8.662;2023-02-22T03:12:13;99639.97;;;5.08;100.00
11041;BME280;5573;49.592;8.662;2023-02-22T03:14:52;99647.50;;;4.99;100.00
11041;BME280;5573;49.592;8.662;2023-02-22T03:17:36;99648.69;;;4.86;100.00
11041;BME280;5573;49.592;8.662;2023-02-22T03:20:12;99648.41;;;4.75;100.00
11041;BME280;5573;49.592;8.662;2023-02-22T03:22:48;99643.31;;;4.61;100.00
11041;BME280;5573;49.592;8.662;2023-02-22T03:25:21;99653.31;;;4.57;100.00
11041;BME280;5573;49.592;8.662;2023-02-22T03:27:53;99651.56;;;4.49;100.00
11041;BME280;5573;49.592;8.662;2023-02-22T03:30:26;99645.09;;;4.41;100.00
11041;BME280;5573;49.592;8.662;2023-02-22T03:33:03;99632.50;;;4.37;100.00
11041;BME280;5573;49.592;8.662;2023-02-22T03:35:39;99647.25;;;4.36;100.00
11041;BME280;5573;49.592;8.662;2023-02-22T03:38:11;99643.41;;;4.37;100.00
11041;BME280;5573;49.592;8.662;2023-02-22T03:40:45;99587.75;;;4.10;100.00
11041;BME280;5573;49.592;8.662;2023-02-22T03:43:20;99640.69;;;4.37;100.00
11041;BME280;5573;49.592;8.662;2023-02-22T03:45:53;99644.41;;;4.32;100.00
11041;BME280;5573;49.592;8.662;2023-02-22T03:48:25;99640.13;;;4.31;100.00
11041;BME280;5573;49.592;8.662;2023-02-22T03:51:01;99647.25;;;4.23;100.00
11041;BME280;5573;49.592;8.662;2023-02-22T03:53:31;99638.66;;;4.21;100.00
11041;BME280;5573;49.592;8.662;2023-02-22T03:56:06;99639.91;;;4.24;100.00
11041;BME280;5573;49.592;8.662;2023-02-22T03:58:37;99640.13;;;4.19;100.00
11041;BME280;5573;49.592;8.662;2023-02-22T04:01:06;99636.84;;;4.13;100.00
11041;BME280;5573;49.592;8.662;2023-02-22T04:03:33;99630.16;;;4.11;100.00
11041;BME280;5573;49.592;8.662;2023-02-22T04:06:03;99630.41;;;4.05;100.00
11041;BME280;5573;49.592;8.662;2023-02-22T04:08:30;99633.25;;;4.09;100.00
11041;BME280;5573;49.592;8.662;2023-02-22T04:10:58;99633.34;;;4.13;100.00
11041;BME280;5573;49.592;8.662;2023-02-22T04:13:27;99636.41;;;4.11;100.00
11041;BME280;5573;49.592;8.662;2023-02-22T04:15:56;99620.41;;;4.10;100.00
11041;BME280;5573;49.592;8.662;2023-02-22T04:18:24;99631.19;;;4.06;100.00
11041;BME280;5573;49.592;8.662;2023-02-22T04:20:52;99624.63;;;4.07;100.00
11041;BME280;5573;49.592;8.662;2023-02-22T04:23:30;99620.41;;;4.10;100.00
11041;BME280;5573;49.592;8.662;2023-02-22T04:25:58;99623.34;;;4.04;100.00
11041;BME280;5573;49.592;8.662;2023-02-22T04:28:25;99613.28;;;4.05;100.00
11041;BME280;5573;49.592;8.662;2023-02-22T04:31:04;99619.19;;;4.07;100.00
11041;BME280;5573;49.592;8.662;2023-02-22T04:33:32;99613.16;;;4.14;100.00
11041;BME280;5573;49.592;8.662;2023-02-22T04:36:00;99608.28;;;4.07;100.00
11041;BME280;5573;49.592;8.662;2023-02-22T04:38:32;99603.53;;;4.04;100.00
11041;BME280;5573;49.592;8.662;2023-02-22T04:41:00;99618.81;;;4.08;100.00
11041;BME280;5573;49.592;8.662;2023-02-22T04:43:28;99620.09;;;4.11;100.00
11041;BME280;5573;49.592;8.662;2023-02-22T04:46:05;99617.13;;;4.16;100.00
11041;BME280;5573;49.592;8.662;2023-02-22T04:48:34;99616.66;;;4.14;100.00
11041;BME280;5573;49.592;8.662;2023-02-22T04:51:01;99626.41;;;4.15;100.00
11041;BME280;5573;49.592;8.662;2023-02-22T04:53:30;99613.81;;;4.11;100.00
11041;BME280;5573;49.592;8.662;2023-02-22T04:56:00;99619.25;;;4.11;100.00
11041;BME280;5573;49.592;8.662;2023-02-22T04:58:28;99614.63;;;4.11;100.00
11041;BME280;5573;49.592;8.662;2023-02-22T05:00:57;99613.94;;;4.14;100.00
11041;BME280;5573;49.592;8.662;2023-02-22T05:03:26;99613.50;;;4.12;100.00
11041;BME280;5573;49.592;8.662;2023-02-22T05:05:53;99618.94;;;4.12;100.00
11041;BME280;5573;49.592;8.662;2023-02-22T05:08:21;99617.56;;;4.18;100.00
11041;BME280;5573;49.592;8.662;2023-02-22T05:10:48;99618.47;;;4.22;100.00
11041;BME280;5573;49.592;8.662;2023-02-22T05:13:18;99624.25;;;4.21;100.00
11041;BME280;5573;49.592;8.662;2023-02-22T05:15:45;99621.31;;;4.26;100.00
11041;BME280;5573;49.592;8.662;2023-02-22T05:18:14;99619.81;;;4.28;100.00
11041;BME280;5573;49.592;8.662;2023-02-22T05:20:42;99624.69;;;4.35;100.00
11041;BME280;5573;49.592;8.662;2023-02-22T05:23:09;99620.72;;;4.33;100.00
11041;BME280;5573;49.592;8.662;2023-02-22T05:25:37;99623.97;;;4.38;100.00
11041;BME280;5573;49.592;8.662;2023-02-22T05:28:10;99616.84;;;4.34;100.00
11041;BME280;5573;49.592;8.662;2023-02-22T05:30:40;99614.91;;;4.34;100.00
11041;BME280;5573;49.592;8.662;2023-02-22T05:33:08;99613.66;;;4.32;100.00
11041;BME280;5573;49.592;8.662;2023-02-22T05:35:36;99621.16;;;4.35;100.00
11041;BME280;5573;49.592;8.662;2023-02-22T05:38:04;99614.56;;;4.36;100.00
11041;BME280;5573;49.592;8.662;2023-02-22T05:40:33;99584.25;;;4.09;100.00
11041;BME280;5573;49.592;8.662;2023-02-22T05:43:01;99618.44;;;4.35;100.00
11041;BME280;5573;49.592;8.662;2023-02-22T05:45:29;99610.28;;;4.35;100.00
11041;BME280;5573;49.592;8.662;2023-02-22T05:47:58;99609.81;;;4.33;100.00
11041;BME280;5573;49.592;8.662;2023-02-22T05:50:25;99609.00;;;4.32;100.00
11041;BME280;5573;49.592;8.662;2023-02-22T05:52:54;99605.31;;;4.24;100.00
11041;BME280;5573;49.592;8.662;2023-02-22T05:55:22;99604.25;;;4.29;100.00
11041;BME280;5573;49.592;8.662;2023-02-22T05:57:51;99599.41;;;4.22;100.00
11041;BME280;5573;49.592;8.662;2023-02-22T06:00:21;99598.06;;;4.16;100.00
11041;BME280;5573;49.592;8.662;2023-02-22T06:02:53;99600.06;;;4.19;100.00
11041;BME280;5573;49.592;8.662;2023-02-22T06:05:22;99600.78;;;4.16;100.00
11041;BME280;5573;49.592;8.662;2023-02-22T06:07:50;99604.41;;;4.20;100.00
11041;BME280;5573;49.592;8.662;2023-02-22T06:10:19;99599.75;;;4.08;100.00
11041;BME280;5573;49.592;8.662;2023-02-22T06:12:48;99607.31;;;4.27;100.00
11041;BME280;5573;49.592;8.662;2023-02-22T06:15:18;99603.94;;;4.31;100.00
11041;BME280;5573;49.592;8.662;2023-02-22T06:17:46;99602.88;;;4.35;100.00
11041;BME280;5573;49.592;8.662;2023-02-22T06:20:16;99599.13;;;4.40;100.00
11041;BME280;5573;49.592;8.662;2023-02-22T06:22:47;99610.72;;;4.37;100.00
11041;BME280;5573;49.592;8.662;2023-02-22T06:25:18;99612.28;;;4.38;100.00
11041;BME280;5573;49.592;8.662;2023-02-22T06:27:46;99619.78;;;4.41;100.00
11041;BME280;5573;49.592;8.662;2023-02-22T06:30:16;99613.91;;;4.39;100.00
11041;BME280;5573;49.592;8.662;2023-02-22T06:32:44;99625.69;;;4.43;100.00
11041;BME280;5573;49.592;8.662;2023-02-22T06:35:13;99634.97;;;4.42;100.00
11041;BME280;5573;49.592;8.662;2023-02-22T06:37:41;99631.22;;;4.46;100.00
11041;BME280;5573;49.592;8.662;2023-02-22T06:40:11;99637.47;;;4.47;100.00
11041;BME280;5573;49.592;8.662;2023-02-22T06:42:40;99620.69;;;4.45;100.00
11041;BME280;5573;49.592;8.662;2023-02-22T06:45:09;99638.91;;;4.57;100.00
11041;BME280;5573;49.592;8.662;2023-02-22T06:47:37;99632.91;;;4.51;100.00
11041;BME280;5573;49.592;8.662;2023-02-22T06:50:09;99637.53;;;4.63;100.00
11041;BME280;5573;49.592;8.662;2023-02-22T06:52:44;99644.78;;;4.71;100.00
11041;BME280;5573;49.592;8.662;2023-02-22T06:55:17;99646.72;;;4.71;100.00
11041;BME280;5573;49.592;8.662;2023-02-22T06:57:46;99640.78;;;4.81;100.00
11041;BME280;5573;49.592;8.662;2023-02-22T07:00:15;99641.56;;;4.81;100.00
11041;BME280;5573;49.592;8.662;2023-02-22T07:02:44;99644.91;;;4.91;100.00
11041;BME280;5573;49.592;8.662;2023-02-22T07:05:15;99650.03;;;4.92;100.00
11041;BME280;5573;49.592;8.662;2023-02-22T07:07:43;99655.09;;;5.06;100.00
11041;BME280;5573;49.592;8.662;2023-02-22T07:10:18;99651.06;;;5.16;100.00
11041;BME280;5573;49.592;8.662;2023-02-22T07:12:46;99656.44;;;5.28;100.00
11041;BME280;5573;49.592;8.662;2023-02-22T07:15:16;99659.88;;;5.41;100.00
11041;BME280;5573;49.592;8.662;2023-02-22T07:17:44;99664.66;;;5.60;100.00
11041;BME280;5573;49.592;8.662;2023-02-22T07:20:12;99662.28;;;5.58;100.00
11041;BME280;5573;49.592;8.662;2023-02-22T07:22:40;99661.06;;;5.72;100.00
11041;BME280;5573;49.592;8.662;2023-02-22T07:25:08;99644.34;;;5.57;100.00
11041;BME280;5573;49.592;8.662;2023-02-22T07:27:40;99666.84;;;5.86;100.00
11041;BME280;5573;49.592;8.662;2023-02-22T07:30:15;99674.06;;;5.94;100.00
11041;BME280;5573;49.592;8.662;2023-02-22T07:32:44;99663.50;;;6.08;100.00
11041;BME280;5573;49.592;8.662;2023-02-22T07:35:14;99667.66;;;6.18;100.00
11041;BME280;5573;49.592;8.662;2023-02-22T07:37:42;99666.03;;;6.33;100.00
11041;BME280;5573;49.592;8.662;2023-02-22T07:40:11;99673.91;;;6.54;100.00
11041;BME280;5573;49.592;8.662;2023-02-22T07:42:55;99666.28;;;6.63;100.00
11041;BME280;5573;49.592;8.662;2023-02-22T07:45:24;99664.19;;;6.76;100.00
11041;BME280;5573;49.592;8.662;2023-02-22T07:47:53;99664.81;;;6.85;100.00
11041;BME280;5573;49.592;8.662;2023-02-22T07:50:22;99676.66;;;6.93;100.00
11041;BME280;5573;49.592;8.662;2023-02-22T07:52:52;99670.03;;;6.94;100.00
11041;BME280;5573;49.592;8.662;2023-02-22T07:55:22;99677.28;;;7.06;100.00
11041;BME280;5573;49.592;8.662;2023-02-22T07:57:53;99665.69;;;7.12;100.00
11041;BME280;5573;49.592;8.662;2023-02-22T08:00:22;99663.78;;;7.13;100.00
11041;BME280;5573;49.592;8.662;2023-02-22T08:02:51;99660.81;;;7.22;100.00
11041;BME280;5573;49.592;8.662;2023-02-22T08:05:20;99661.31;;;7.27;100.00
11041;BME280;5573;49.592;8.662;2023-02-22T08:07:49;99654.06;;;7.39;100.00
11041;BME280;5573;49.592;8.662;2023-02-22T08:10:19;99663.63;;;7.48;100.00
11041;BME280;5573;49.592;8.662;2023-02-22T08:12:48;99662.66;;;7.60;100.00
11041;BME280;5573;49.592;8.662;2023-02-22T08:15:20;99655.28;;;7.64;100.00
11041;BME280;5573;49.592;8.662;2023-02-22T08:17:49;99661.63;;;7.68;100.00
11041;BME280;5573;49.592;8.662;2023-02-22T08:20:17;99661.63;;;7.68;100.00
11041;BME280;5573;49.592;8.662;2023-02-22T08:22:45;99655.59;;;7.59;100.00
11041;BME280;5573;49.592;8.662;2023-02-22T08:25:15;99664.69;;;7.63;100.00
11041;BME280;5573;49.592;8.662;2023-02-22T08:27:44;99656.03;;;7.61;100.00
11041;BME280;5573;49.592;8.662;2023-02-22T08:30:15;99664.84;;;7.74;100.00
11041;BME280;5573;49.592;8.662;2023-02-22T08:32:45;99665.03;;;7.85;100.00
11041;BME280;5573;49.592;8.662;2023-02-22T08:35:13;99664.75;;;7.93;100.00
11041;BME280;5573;49.592;8.662;2023-02-22T08:37:42;99657.03;;;7.99;100.00
11041;BME280;5573;49.592;8.662;2023-02-22T08:40:11;99660.31;;;8.08;100.00
11041;BME280;5573;49.592;8.662;2023-02-22T08:42:40;99660.47;;;8.19;100.00
11041;BME280;5573;49.592;8.662;2023-02-22T08:45:09;99654.88;;;8.12;100.00
11041;BME280;5573;49.592;8.662;2023-02-22T08:47:40;99651.81;;;8.17;100.00
11041;BME280;5573;49.592;8.662;2023-02-22T08:50:15;99649.81;;;8.41;100.00
11041;BME280;5573;49.592;8.662;2023-02-22T08:52:43;99660.94;;;8.51;100.00
11041;BME280;5573;49.592;8.662;2023-02-22T08:55:11;99660.75;;;8.67;100.00
11041;BME280;5573;49.592;8.662;2023-02-22T08:57:40;99658.09;;;8.74;100.00
11041;BME280;5573;49.592;8.662;2023-02-22T09:00:09;99662.47;;;8.79;100.00
11041;BME280;5573;49.592;8.662;2023-02-22T09:02:37;99658.44;;;8.69;100.00
11041;BME280;5573;49.592;8.662;2023-02-22T09:05:06;99672.97;;;8.73;100.00
11041;BME280;5573;49.592;8.662;2023-02-22T09:07:35;99672.41;;;8.91;100.00
11041;BME280;5573;49.592;8.662;2023-02-22T09:10:03;99676.22;;;8.83;100.00
11041;BME280;5573;49.592;8.662;2023-02-22T09:12:31;99666.09;;;8.87;100.00
11041;BME280;5573;49.592;8.662;2023-02-22T09:14:59;99670.91;;;8.97;100.00
11041;BME280;5573;49.592;8.662;2023-02-22T09:17:27;99677.72;;;9.10;100.00
11041;BME280;5573;49.592;8.662;2023-02-22T09:19:55;99668.72;;;9.10;100.00
11041;BME280;5573;49.592;8.662;2023-02-22T09:22:23;99670.88;;;8.93;100.00
11041;BME280;5573;49.592;8.662;2023-02-22T09:24:52;99670.31;;;8.81;100.00
11041;BME280;5573;49.592;8.662;2023-02-22T09:27:24;99672.66;;;8.79;100.00
11041;BME280;5573;49.592;8.662;2023-02-22T09:29:53;99665.78;;;8.92;100.00
11041;BME280;5573;49.592;8.662;2023-02-22T09:32:22;99666.38;;;9.12;100.00
11041;BME280;5573;49.592;8.662;2023-02-22T09:34:50;99666.91;;;9.25;100.00
11041;BME280;5573;49.592;8.662;2023-02-22T09:37:18;99663.06;;;9.33;100.00
11041;BME280;5573;49.592;8.662;2023-02-22T09:39:46;99658.19;;;9.56;100.00
11041;BME280;5573;49.592;8.662;2023-02-22T09:42:22;99654.81;;;9.70;100.00
11041;BME280;5573;49.592;8.662;2023-02-22T09:44:57;99654.91;;;9.85;100.00
11041;BME280;5573;49.592;8.662;2023-02-22T09:47:36;99641.19;;;9.88;100.00
11041;BME280;5573;49.592;8.662;2023-02-22T09:50:08;99646.06;;;10.06;100.00
11041;BME280;5573;49.592;8.662;2023-02-22T09:52:51;99645.53;;;10.45;97.37
11041;BME280;5573;49.592;8.662;2023-02-22T09:55:27;99647.53;;;10.51;99.50
11041;BME280;5573;49.592;8.662;2023-02-22T09:58:05;99640.81;;;10.45;97.81
11041;BME280;5573;49.592;8.662;2023-02-22T10:00:35;99645.53;;;10.45;98.42
11041;BME280;5573;49.592;8.662;2023-02-22T10:03:16;99639.34;;;10.73;92.59
11041;BME280;5573;49.592;8.662;2023-02-22T10:05:52;99641.28;;;10.62;97.82
11041;BME280;5573;49.592;8.662;2023-02-22T10:08:26;99638.56;;;10.72;93.02
11041;BME280;5573;49.592;8.662;2023-02-22T10:11:04;99632.34;;;10.86;92.53
11041;BME280;5573;49.592;8.662;2023-02-22T10:13:46;99630.69;;;10.71;95.49
11041;BME280;5573;49.592;8.662;2023-02-22T10:16:21;99636.31;;;10.96;95.98
11041;BME280;5573;49.592;8.662;2023-02-22T10:19:04;99635.59;;;11.13;92.70
11041;BME280;5573;49.592;8.662;2023-02-22T10:21:58;99635.56;;;11.03;91.67
11041;BME280;5573;49.592;8.662;2023-02-22T10:24:37;99636.38;;;11.17;87.21
11041;BME280;5573;49.592;8.662;2023-02-22T10:27:14;99640.34;;;11.31;86.22
11041;BME280;5573;49.592;8.662;2023-02-22T10:29:48;99632.91;;;11.60;84.81
11041;BME280;5573;49.592;8.662;2023-02-22T10:32:23;99626.22;;;11.79;84.51
11041;BME280;5573;49.592;8.662;2023-02-22T10:34:55;99619.50;;;11.73;80.98
11041;BME280;5573;49.592;8.662;2023-02-22T10:37:26;99618.34;;;11.67;81.03
11041;BME280;5573;49.592;8.662;2023-02-22T10:39:59;99618.34;;;11.95;77.36
11041;BME280;5573;49.592;8.662;2023-02-22T10:42:31;99630.16;;;11.71;75.25
11041;BME280;5573;49.592;8.662;2023-02-22T10:45:00;99619.53;;;11.76;74.83
11041;BME280;5573;49.592;8.662;2023-02-22T10:47:28;99623.84;;;12.06;73.53
11041;BME280;5573;49.592;8.662;2023-02-22T10:49:57;99623.84;;;12.06;74.02
11041;BME280;5573;49.592;8.662;2023-02-22T10:52:29;99619.50;;;12.16;71.49
11041;BME280;5573;49.592;8.662;2023-02-22T10:54:58;99614.72;;;12.38;67.84
11041;BME280;5573;49.592;8.662;2023-02-22T10:57:42;99619.81;;;12.39;69.10
11041;BME280;5573;49.592;8.662;2023-02-22T11:00:19;99619.81;;;12.39;69.94
11041;BME280;5573;49.592;8.662;2023-02-22T11:02:53;99615.41;;;12.67;68.74
11041;BME280;5573;49.592;8.662;2023-02-22T11:05:31;99609.56;;;12.54;70.13
11041;BME280;5573;49.592;8.662;2023-02-22T11:08:21;99611.06;;;12.73;68.94
11041;BME280;5573;49.592;8.662;2023-02-22T11:10:51;99599.19;;;12.80;68.03
11041;BME280;5573;49.592;8.662;2023-02-22T11:13:24;99608.63;;;12.82;67.94
11041;BME280;5573;49.592;8.662;2023-02-22T11:15:54;99602.75;;;12.77;68.57
11041;BME280;5573;49.592;8.662;2023-02-22T11:18:28;99604.75;;;12.69;69.33
11041;BME280;5573;49.592;8.662;2023-02-22T11:21:02;99596.47;;;12.69;68.93
11041;BME280;5573;49.592;8.662;2023-02-22T11:23:32;99599.53;;;12.86;70.22
11041;BME280;5573;49.592;8.662;2023-02-22T11:26:04;99598.31;;;12.94;69.36
11041;BME280;5573;49.592;8.662;2023-02-22T11:28:33;99604.47;;;13.19;68.25
11041;BME280;5573;49.592;8.662;2023-02-22T11:31:16;99591.53;;;13.09;68.77
11041;BME280;5573;49.592;8.662;2023-02-22T11:33:48;99588.72;;;13.20;66.49
11041;BME280;5573;49.592;8.662;2023-02-22T11:36:33;99586.75;;;13.17;68.28
11041;BME280;5573;49.592;8.662;2023-02-22T11:39:05;99583.13;;;13.31;66.83
11041;BME280;5573;49.592;8.662;2023-02-22T11:41:37;99575.44;;;13.56;66.40
11041;BME280;5573;49.592;8.662;2023-02-22T11:44:19;99580.41;;;13.76;64.85
11041;BME280;5573;49.592;8.662;2023-02-22T11:46:49;99578.03;;;13.74;64.90
11041;BME280;5573;49.592;8.662;2023-02-22T11:49:23;99579.31;;;13.66;65.19
11041;BME280;5573;49.592;8.662;2023-02-22T11:52:14;99573.97;;;13.90;64.58
11041;BME280;5573;49.592;8.662;2023-02-22T11:55:04;99574.34;;;13.92;63.66
11041;BME280;5573;49.592;8.662;2023-02-22T11:57:44;99568.09;;;13.84;64.24
11041;BME280;5573;49.592;8.662;2023-02-22T12:00:21;99562.06;;;13.93;64.10
11041;BME280;5573;49.592;8.662;2023-02-22T12:03:21;99556.56;;;13.89;63.72
11041;BME280;5573;49.592;8.662;2023-02-22T12:06:03;99562.94;;;13.86;63.32
11041;BME280;5573;49.592;8.662;2023-02-22T12:08:43;99536.75;;;13.98;63.15
11041;BME280;5573;49.592;8.662;2023-02-22T12:11:21;99562.19;;;14.20;62.57
11041;BME280;5573;49.592;8.662;2023-02-22T12:14:07;99549.00;;;14.31;62.36
11041;BME280;5573;49.592;8.662;2023-02-22T12:16:50;99549.44;;;14.30;61.92
11041;BME280;5573;49.592;8.662;2023-02-22T12:19:30;99544.81;;;14.19;62.75
11041;BME280;5573;49.592;8.662;2023-02-22T12:22:04;99544.41;;;14.21;62.01
11041;BME280;5573;49.592;8.662;2023-02-22T12:24:36;99547.06;;;14.28;61.02
11041;BME280;5573;49.592;8.662;2023-02-22T12:27:08;99542.06;;;14.16;61.92
11041;BME280;5573;49.592;8.662;2023-02-22T12:29:41;99542.41;;;14.21;62.21
11041;BME280;5573;49.592;8.662;2023-02-22T12:32:13;99543.72;;;14.10;62.56
11041;BME280;5573;49.592;8.662;2023-02-22T12:34:46;99541.75;;;14.44;61.05
11041;BME280;5573;49.592;8.662;2023-02-22T12:37:17;99527.00;;;14.20;60.79
11041;BME280;5573;49.592;8.662;2023-02-22T12:39:54;99526.69;;;14.46;60.38
11041;BME280;5573;49.592;8.662;2023-02-22T12:42:29;99523.72;;;14.63;58.49
11041;BME280;5573;49.592;8.662;2023-02-22T12:45:03;99527.25;;;14.68;59.49
11041;BME280;5573;49.592;8.662;2023-02-22T12:47:39;99526.25;;;14.81;59.14
11041;BME280;5573;49.592;8.662;2023-02-22T12:50:18;99525.28;;;14.64;59.03
11041;BME280;5573;49.592;8.662;2023-02-22T12:52:52;99522.22;;;14.86;58.96
11041;BME280;5573;49.592;8.662;2023-02-22T12:55:28;99520.50;;;14.96;59.27
11041;BME280;5573;49.592;8.662;2023-02-22T12:58:03;99509.38;;;14.99;58.64
11041;BME280;5573;49.592;8.662;2023-02-22T13:00:40;99511.66;;;15.04;57.65
11041;BME280;5573;49.592;8.662;2023-02-22T13:03:26;99505.72;;;15.30;56.61
11041;BME280;5573;49.592;8.662;2023-02-22T13:06:12;99507.59;;;15.36;57.93
11041;BME280;5573;49.592;8.662;2023-02-22T13:08:47;99499.34;;;15.33;57.92
11041;BME280;5573;49.592;8.662;2023-02-22T13:11:24;99503.25;;;15.35;57.36
11041;BME280;5573;49.592;8.662;2023-02-22T13:14:05;99487.03;;;15.10;57.57
11041;BME280;5573;49.592;8.662;2023-02-22T13:16:39;99491.56;;;15.24;57.28
11041;BME280;5573;49.592;8.662;2023-02-22T13:19:17;99500.94;;;15.07;57.56
11041;BME280;5573;49.592;8.662;2023-02-22T13:21:55;99493.94;;;14.98;58.34
11041;BME280;5573;49.592;8.662;2023-02-22T13:24:28;99487.22;;;15.23;59.10
11041;BME280;5573;49.592;8.662;2023-02-22T13:27:01;99487.28;;;15.19;58.74
11041;BME280;5573;49.592;8.662;2023-02-22T13:29:34;99457.66;;;15.16;57.56
11041;BME280;5573;49.592;8.662;2023-02-22T13:32:12;99484.16;;;15.41;58.87
11041;BME280;5573;49.592;8.662;2023-02-22T13:35:07;99483.97;;;15.52;57.87
11041;BME280;5573;49.592;8.662;2023-02-22T13:40:53;99479.69;;;15.71;58.82
11041;BME280;5573;49.592;8.662;2023-02-22T13:43:48;99474.56;;;15.69;58.47